sensor_id;sensor_type;location;lat;lon;timestamp;P1;durP1;ratioP1;P2;durP2;ratioP2
64894;SDS011;51588;53.702;10.208;2022-09-30T00:01:24;3.90;;;3.23;;
64894;SDS011;51588;53.702;10.208;2022-09-30T00:03:52;4.23;;;3.20;;
64894;SDS011;51588;53.702;10.208;2022-09-30T00:06:20;3.67;;;3.10;;
64894;SDS011;51588;53.702;10.208;2022-09-30T00:08:47;4.70;;;3.30;;
64894;SDS011;51588;53.702;10.208;2022-09-30T00:11:14;4.23;;;3.33;;
64894;SDS011;51588;53.702;10.208;2022-09-30T00:13:43;4.30;;;3.47;;
64894;SDS011;51588;53.702;10.208;2022-09-30T00:16:11;3.60;;;3.00;;
64894;SDS011;51588;53.702;10.208;2022-09-30T00:18:39;3.20;;;2.80;;
64894;SDS011;51588;53.702;10.208;2022-09-30T00:21:07;4.00;;;3.43;;
64894;SDS011;51588;53.702;10.208;2022-09-30T00:23:36;3.67;;;2.83;;
64894;SDS011;51588;53.702;10.208;2022-09-30T00:26:04;3.40;;;3.10;;
64894;SDS011;51588;53.702;10.208;2022-09-30T00:28:32;3.40;;;3.10;;
64894;SDS011;51588;53.702;10.208;2022-09-30T00:31:00;4.50;;;3.27;;
64894;SDS011;51588;53.702;10.208;2022-09-30T00:33:29;3.70;;;2.80;;
64894;SDS011;51588;53.702;10.208;2022-09-30T00:35:56;3.70;;;3.30;;
64894;SDS011;51588;53.702;10.208;2022-09-30T00:38:23;3.43;;;3.00;;
64894;SDS011;51588;53.702;10.208;2022-09-30T00:40:50;3.50;;;3.10;;
64894;SDS011;51588;53.702;10.208;2022-09-30T00:43:18;3.30;;;2.83;;
64894;SDS011;51588;53.702;10.208;2022-09-30T00:45:47;3.80;;;3.13;;
64894;SDS011;51588;53.702;10.208;2022-09-30T00:48:16;3.80;;;2.90;;
64894;SDS011;51588;53.702;10.208;2022-09-30T00:50:46;4.23;;;3.40;;
64894;SDS011;51588;53.702;10.208;2022-09-30T00:53:20;3.20;;;2.90;;
64894;SDS011;51588;53.702;10.208;2022-09-30T00:55:55;3.50;;;3.20;;
64894;SDS011;51588;53.702;10.208;2022-09-30T00:58:27;3.40;;;3.10;;
64894;SDS011;51588;53.702;10.208;2022-09-30T01:00:56;3.27;;;2.97;;
64894;SDS011;51588;53.702;10.208;2022-09-30T01:03:26;3.47;;;3.17;;
64894;SDS011;51588;53.702;10.208;2022-09-30T01:05:55;3.10;;;2.80;;
64894;SDS011;51588;53.702;10.208;2022-09-30T01:08:21;3.67;;;3.17;;
64894;SDS011;51588;53.702;10.208;2022-09-30T01:10:49;4.20;;;3.13;;
64894;SDS011;51588;53.702;10.208;2022-09-30T01:13:17;3.50;;;2.90;;
64894;SDS011;51588;53.702;10.208;2022-09-30T01:15:55;4.70;;;3.10;;
64894;SDS011;51588;53.702;10.208;2022-09-30T01:18:48;3.30;;;3.00;;
64894;SDS011;51588;53.702;10.208;2022-09-30T01:21:35;3.97;;;2.80;;
64894;SDS011;51588;53.702;10.208;2022-09-30T01:24:21;2.97;;;2.67;;
64894;SDS011;51588;53.702;10.208;2022-09-30T01:27:19;3.30;;;3.00;;
64894;SDS011;51588;53.702;10.208;2022-09-30T01:30:03;3.30;;;3.00;;
64894;SDS011;51588;53.702;10.208;2022-09-30T01:35:59;3.20;;;2.90;;
64894;SDS011;51588;53.702;10.208;2022-09-30T01:38:45;3.20;;;2.90;;
64894;SDS011;51588;53.702;10.208;2022-09-30T01:41:21;3.20;;;2.60;;
64894;SDS011;51588;53.702;10.208;2022-09-30T01:43:54;2.97;;;2.70;;
64894;SDS011;51588;53.702;10.208;2022-09-30T01:46:31;2.80;;;2.60;;
64894;SDS011;51588;53.702;10.208;2022-09-30T01:49:06;3.50;;;2.70;;
64894;SDS011;51588;53.702;10.208;2022-09-30T01:51:38;3.00;;;2.73;;
64894;SDS011;51588;53.702;10.208;2022-09-30T01:54:12;3.20;;;2.60;;
64894;SDS011;51588;53.702;10.208;2022-09-30T01:56:45;3.60;;;2.50;;
64894;SDS011;51588;53.702;10.208;2022-09-30T01:59:15;3.37;;;2.80;;
64894;SDS011;51588;53.702;10.208;2022-09-30T02:01:48;3.20;;;2.80;;
64894;SDS011;51588;53.702;10.208;2022-09-30T02:04:22;3.50;;;3.20;;
64894;SDS011;51588;53.702;10.208;2022-09-30T02:06:54;2.90;;;2.60;;
64894;SDS011;51588;53.702;10.208;2022-09-30T02:09:26;3.13;;;2.50;;
64894;SDS011;51588;53.702;10.208;2022-09-30T02:11:57;2.90;;;2.63;;
64894;SDS011;51588;53.702;10.208;2022-09-30T02:14:29;3.20;;;2.90;;
64894;SDS011;51588;53.702;10.208;2022-09-30T02:17:01;2.60;;;2.40;;
64894;SDS011;51588;53.702;10.208;2022-09-30T02:19:34;3.00;;;2.70;;
64894;SDS011;51588;53.702;10.208;2022-09-30T02:22:07;2.60;;;2.40;;
64894;SDS011;51588;53.702;10.208;2022-09-30T02:24:40;3.07;;;2.70;;
64894;SDS011;51588;53.702;10.208;2022-09-30T02:27:11;3.00;;;2.70;;
64894;SDS011;51588;53.702;10.208;2022-09-30T02:29:44;3.00;;;2.70;;
64894;SDS011;51588;53.702;10.208;2022-09-30T02:32:16;3.93;;;2.60;;
64894;SDS011;51588;53.702;10.208;2022-09-30T02:34:49;3.30;;;3.00;;
64894;SDS011;51588;53.702;10.208;2022-09-30T02:37:20;2.90;;;2.50;;
64894;SDS011;51588;53.702;10.208;2022-09-30T02:39:55;3.23;;;2.60;;
64894;SDS011;51588;53.702;10.208;2022-09-30T02:42:26;2.90;;;2.60;;
64894;SDS011;51588;53.702;10.208;2022-09-30T02:44:56;2.80;;;2.53;;
64894;SDS011;51588;53.702;10.208;2022-09-30T02:47:27;2.73;;;2.53;;
64894;SDS011;51588;53.702;10.208;2022-09-30T02:50:01;2.53;;;2.33;;
64894;SDS011;51588;53.702;10.208;2022-09-30T02:52:35;3.20;;;2.90;;
64894;SDS011;51588;53.702;10.208;2022-09-30T02:55:13;2.80;;;2.60;;
64894;SDS011;51588;53.702;10.208;2022-09-30T02:57:47;3.13;;;2.80;;
64894;SDS011;51588;53.702;10.208;2022-09-30T03:00:21;2.90;;;2.70;;
64894;SDS011;51588;53.702;10.208;2022-09-30T03:02:49;3.20;;;2.90;;
64894;SDS011;51588;53.702;10.208;2022-09-30T03:05:20;2.67;;;2.47;;
64894;SDS011;51588;53.702;10.208;2022-09-30T03:07:47;2.93;;;2.70;;
64894;SDS011;51588;53.702;10.208;2022-09-30T03:10:14;3.07;;;2.77;;
64894;SDS011;51588;53.702;10.208;2022-09-30T03:12:46;2.70;;;2.50;;
64894;SDS011;51588;53.702;10.208;2022-09-30T03:15:29;3.23;;;2.93;;
64894;SDS011;51588;53.702;10.208;2022-09-30T03:18:14;4.00;;;2.70;;
64894;SDS011;51588;53.702;10.208;2022-09-30T03:20:59;2.63;;;2.43;;
64894;SDS011;51588;53.702;10.208;2022-09-30T03:23:38;2.83;;;2.63;;
64894;SDS011;51588;53.702;10.208;2022-09-30T03:26:18;3.23;;;2.90;;
64894;SDS011;51588;53.702;10.208;2022-09-30T03:29:00;3.00;;;2.70;;
64894;SDS011;51588;53.702;10.208;2022-09-30T03:31:37;2.97;;;2.70;;
64894;SDS011;51588;53.702;10.208;2022-09-30T03:34:14;3.33;;;3.03;;
64894;SDS011;51588;53.702;10.208;2022-09-30T03:36:49;3.20;;;2.90;;
64894;SDS011;51588;53.702;10.208;2022-09-30T03:39:27;3.50;;;2.83;;
64894;SDS011;51588;53.702;10.208;2022-09-30T03:42:04;3.20;;;2.90;;
64894;SDS011;51588;53.702;10.208;2022-09-30T03:44:38;2.80;;;2.43;;
64894;SDS011;51588;53.702;10.208;2022-09-30T03:47:09;2.90;;;2.60;;
64894;SDS011;51588;53.702;10.208;2022-09-30T03:49:40;2.73;;;2.53;;
64894;SDS011;51588;53.702;10.208;2022-09-30T03:52:12;3.23;;;2.93;;
64894;SDS011;51588;53.702;10.208;2022-09-30T03:54:44;3.07;;;2.77;;
64894;SDS011;51588;53.702;10.208;2022-09-30T03:57:14;2.90;;;2.70;;
64894;SDS011;51588;53.702;10.208;2022-09-30T03:59:41;3.20;;;2.90;;
64894;SDS011;51588;53.702;10.208;2022-09-30T04:02:07;2.90;;;2.70;;
64894;SDS011;51588;53.702;10.208;2022-09-30T04:04:37;2.87;;;2.57;;
64894;SDS011;51588;53.702;10.208;2022-09-30T04:07:04;2.73;;;2.50;;
64894;SDS011;51588;53.702;10.208;2022-09-30T04:09:32;3.10;;;2.80;;
64894;SDS011;51588;53.702;10.208;2022-09-30T04:11:59;3.10;;;2.67;;
64894;SDS011;51588;53.702;10.208;2022-09-30T04:14:26;2.87;;;2.60;;
64894;SDS011;51588;53.702;10.208;2022-09-30T04:16:52;3.10;;;2.80;;
64894;SDS011;51588;53.702;10.208;2022-09-30T04:19:19;2.80;;;2.60;;
64894;SDS011;51588;53.702;10.208;2022-09-30T04:21:45;3.67;;;2.70;;
64894;SDS011;51588;53.702;10.208;2022-09-30T04:24:12;2.80;;;2.60;;
64894;SDS011;51588;53.702;10.208;2022-09-30T04:26:39;3.33;;;3.03;;
64894;SDS011;51588;53.702;10.208;2022-09-30T04:29:06;3.07;;;2.77;;
64894;SDS011;51588;53.702;10.208;2022-09-30T04:31:32;2.60;;;2.40;;
64894;SDS011;51588;53.702;10.208;2022-09-30T04:33:59;3.27;;;2.97;;
64894;SDS011;51588;53.702;10.208;2022-09-30T04:36:26;2.97;;;2.70;;
64894;SDS011;51588;53.702;10.208;2022-09-30T04:38:52;3.60;;;3.30;;
64894;SDS011;51588;53.702;10.208;2022-09-30T04:41:19;3.40;;;3.00;;
64894;SDS011;51588;53.702;10.208;2022-09-30T04:43:47;3.60;;;3.30;;
64894;SDS011;51588;53.702;10.208;2022-09-30T04:46:14;2.80;;;2.60;;
64894;SDS011;51588;53.702;10.208;2022-09-30T04:48:41;2.73;;;2.50;;
64894;SDS011;51588;53.702;10.208;2022-09-30T04:51:10;3.30;;;3.00;;
64894;SDS011;51588;53.702;10.208;2022-09-30T04:53:36;2.57;;;2.37;;
64894;SDS011;51588;53.702;10.208;2022-09-30T04:56:03;3.40;;;2.93;;
64894;SDS011;51588;53.702;10.208;2022-09-30T04:58:30;3.03;;;2.70;;
64894;SDS011;51588;53.702;10.208;2022-09-30T05:01:02;9.03;;;2.60;;
64894;SDS011;51588;53.702;10.208;2022-09-30T05:03:29;2.23;;;2.03;;
64894;SDS011;51588;53.702;10.208;2022-09-30T05:05:56;3.00;;;2.67;;
64894;SDS011;51588;53.702;10.208;2022-09-30T05:08:23;2.50;;;2.30;;
64894;SDS011;51588;53.702;10.208;2022-09-30T05:10:53;2.90;;;2.70;;
64894;SDS011;51588;53.702;10.208;2022-09-30T05:13:21;3.00;;;2.43;;
64894;SDS011;51588;53.702;10.208;2022-09-30T05:15:48;2.60;;;2.40;;
64894;SDS011;51588;53.702;10.208;2022-09-30T05:18:15;2.90;;;2.70;;
64894;SDS011;51588;53.702;10.208;2022-09-30T05:20:43;2.60;;;2.40;;
64894;SDS011;51588;53.702;10.208;2022-09-30T05:23:09;2.13;;;2.03;;
64894;SDS011;51588;53.702;10.208;2022-09-30T05:25:36;2.50;;;2.30;;
64894;SDS011;51588;53.702;10.208;2022-09-30T05:28:02;17.03;;;5.70;;
64894;SDS011;51588;53.702;10.208;2022-09-30T05:30:29;56.90;;;11.77;;
64894;SDS011;51588;53.702;10.208;2022-09-30T05:32:55;73.87;;;15.17;;
64894;SDS011;51588;53.702;10.208;2022-09-30T05:35:23;92.87;;;15.43;;
64894;SDS011;51588;53.702;10.208;2022-09-30T05:37:50;69.17;;;15.13;;
64894;SDS011;51588;53.702;10.208;2022-09-30T05:40:16;69.67;;;12.23;;
64894;SDS011;51588;53.702;10.208;2022-09-30T05:42:43;43.27;;;10.33;;
64894;SDS011;51588;53.702;10.208;2022-09-30T05:45:10;46.87;;;10.27;;
64894;SDS011;51588;53.702;10.208;2022-09-30T05:47:36;34.73;;;8.03;;
64894;SDS011;51588;53.702;10.208;2022-09-30T05:50:03;31.07;;;8.30;;
64894;SDS011;51588;53.702;10.208;2022-09-30T05:52:32;33.93;;;7.43;;
64894;SDS011;51588;53.702;10.208;2022-09-30T05:54:58;32.30;;;7.00;;
64894;SDS011;51588;53.702;10.208;2022-09-30T05:57:25;29.07;;;7.20;;
64894;SDS011;51588;53.702;10.208;2022-09-30T05:59:52;27.00;;;6.03;;
64894;SDS011;51588;53.702;10.208;2022-09-30T06:02:19;35.93;;;7.20;;
64894;SDS011;51588;53.702;10.208;2022-09-30T06:04:45;21.67;;;5.90;;
64894;SDS011;51588;53.702;10.208;2022-09-30T06:07:12;21.80;;;6.33;;
64894;SDS011;51588;53.702;10.208;2022-09-30T06:09:40;21.17;;;6.37;;
64894;SDS011;51588;53.702;10.208;2022-09-30T06:12:07;24.13;;;6.03;;
64894;SDS011;51588;53.702;10.208;2022-09-30T06:14:35;24.40;;;5.97;;
64894;SDS011;51588;53.702;10.208;2022-09-30T06:17:01;24.23;;;5.23;;
64894;SDS011;51588;53.702;10.208;2022-09-30T06:19:30;18.53;;;5.40;;
64894;SDS011;51588;53.702;10.208;2022-09-30T06:21:57;21.53;;;5.73;;
64894;SDS011;51588;53.702;10.208;2022-09-30T06:24:24;23.07;;;5.60;;
64894;SDS011;51588;53.702;10.208;2022-09-30T06:26:52;26.93;;;6.67;;
64894;SDS011;51588;53.702;10.208;2022-09-30T06:29:19;31.20;;;7.93;;
64894;SDS011;51588;53.702;10.208;2022-09-30T06:31:45;26.00;;;7.93;;
64894;SDS011;51588;53.702;10.208;2022-09-30T06:34:12;23.40;;;8.13;;
64894;SDS011;51588;53.702;10.208;2022-09-30T06:36:38;20.40;;;7.23;;
64894;SDS011;51588;53.702;10.208;2022-09-30T06:39:05;20.50;;;6.53;;
64894;SDS011;51588;53.702;10.208;2022-09-30T06:41:32;16.67;;;6.97;;
64894;SDS011;51588;53.702;10.208;2022-09-30T06:44:03;17.37;;;6.70;;
64894;SDS011;51588;53.702;10.208;2022-09-30T06:46:30;24.00;;;6.80;;
64894;SDS011;51588;53.702;10.208;2022-09-30T06:48:57;15.30;;;5.93;;
64894;SDS011;51588;53.702;10.208;2022-09-30T06:51:24;19.27;;;6.53;;
64894;SDS011;51588;53.702;10.208;2022-09-30T06:53:51;20.27;;;6.80;;
64894;SDS011;51588;53.702;10.208;2022-09-30T06:56:18;14.93;;;5.93;;
64894;SDS011;51588;53.702;10.208;2022-09-30T06:58:45;10.47;;;5.03;;
64894;SDS011;51588;53.702;10.208;2022-09-30T07:01:13;17.13;;;5.70;;
64894;SDS011;51588;53.702;10.208;2022-09-30T07:03:41;12.40;;;5.47;;
64894;SDS011;51588;53.702;10.208;2022-09-30T07:06:10;13.50;;;5.10;;
64894;SDS011;51588;53.702;10.208;2022-09-30T07:08:38;9.70;;;4.97;;
64894;SDS011;51588;53.702;10.208;2022-09-30T07:11:05;15.53;;;5.50;;
64894;SDS011;51588;53.702;10.208;2022-09-30T07:13:36;8.23;;;4.60;;
64894;SDS011;51588;53.702;10.208;2022-09-30T07:16:03;10.70;;;5.00;;
64894;SDS011;51588;53.702;10.208;2022-09-30T07:18:31;12.40;;;4.70;;
64894;SDS011;51588;53.702;10.208;2022-09-30T07:20:58;10.83;;;5.20;;
64894;SDS011;51588;53.702;10.208;2022-09-30T07:23:24;9.43;;;4.40;;
64894;SDS011;51588;53.702;10.208;2022-09-30T07:25:51;7.00;;;4.10;;
64894;SDS011;51588;53.702;10.208;2022-09-30T07:28:20;7.83;;;5.00;;
64894;SDS011;51588;53.702;10.208;2022-09-30T07:30:47;11.80;;;4.23;;
64894;SDS011;51588;53.702;10.208;2022-09-30T07:33:14;8.93;;;4.90;;
64894;SDS011;51588;53.702;10.208;2022-09-30T07:35:49;10.07;;;4.53;;
64894;SDS011;51588;53.702;10.208;2022-09-30T07:38:17;9.43;;;4.50;;
64894;SDS011;51588;53.702;10.208;2022-09-30T07:40:51;10.30;;;4.37;;
64894;SDS011;51588;53.702;10.208;2022-09-30T07:43:19;8.23;;;4.60;;
64894;SDS011;51588;53.702;10.208;2022-09-30T07:45:46;7.30;;;4.03;;
64894;SDS011;51588;53.702;10.208;2022-09-30T07:48:13;6.83;;;4.20;;
64894;SDS011;51588;53.702;10.208;2022-09-30T07:50:55;11.17;;;4.43;;
64894;SDS011;51588;53.702;10.208;2022-09-30T07:53:22;8.30;;;3.87;;
64894;SDS011;51588;53.702;10.208;2022-09-30T07:55:49;9.83;;;4.30;;
64894;SDS011;51588;53.702;10.208;2022-09-30T07:58:15;12.83;;;4.30;;
64894;SDS011;51588;53.702;10.208;2022-09-30T08:00:42;8.27;;;4.27;;
64894;SDS011;51588;53.702;10.208;2022-09-30T08:03:08;11.07;;;4.10;;
64894;SDS011;51588;53.702;10.208;2022-09-30T08:05:37;13.20;;;4.30;;
64894;SDS011;51588;53.702;10.208;2022-09-30T08:08:06;8.67;;;4.00;;
64894;SDS011;51588;53.702;10.208;2022-09-30T08:10:33;6.60;;;4.00;;
64894;SDS011;51588;53.702;10.208;2022-09-30T08:12:59;8.20;;;4.00;;
64894;SDS011;51588;53.702;10.208;2022-09-30T08:15:26;10.07;;;4.10;;
64894;SDS011;51588;53.702;10.208;2022-09-30T08:17:53;7.53;;;3.73;;
64894;SDS011;51588;53.702;10.208;2022-09-30T08:20:19;7.67;;;3.60;;
64894;SDS011;51588;53.702;10.208;2022-09-30T08:22:46;10.43;;;3.80;;
64894;SDS011;51588;53.702;10.208;2022-09-30T08:25:14;8.67;;;4.00;;
64894;SDS011;51588;53.702;10.208;2022-09-30T08:27:40;10.53;;;4.13;;
64894;SDS011;51588;53.702;10.208;2022-09-30T08:30:07;14.60;;;3.80;;
64894;SDS011;51588;53.702;10.208;2022-09-30T08:32:35;7.50;;;3.73;;
64894;SDS011;51588;53.702;10.208;2022-09-30T08:35:01;10.37;;;3.57;;
64894;SDS011;51588;53.702;10.208;2022-09-30T08:37:28;9.80;;;3.50;;
64894;SDS011;51588;53.702;10.208;2022-09-30T08:39:54;9.23;;;3.13;;
64894;SDS011;51588;53.702;10.208;2022-09-30T08:45:16;8.30;;;3.50;;
64894;SDS011;51588;53.702;10.208;2022-09-30T08:47:50;4.77;;;3.27;;
64894;SDS011;51588;53.702;10.208;2022-09-30T08:50:25;6.40;;;3.27;;
64894;SDS011;51588;53.702;10.208;2022-09-30T08:52:56;12.03;;;3.30;;
64894;SDS011;51588;53.702;10.208;2022-09-30T08:55:28;7.47;;;3.00;;
64894;SDS011;51588;53.702;10.208;2022-09-30T08:58:02;5.23;;;2.80;;
64894;SDS011;51588;53.702;10.208;2022-09-30T09:00:30;7.13;;;2.93;;
64894;SDS011;51588;53.702;10.208;2022-09-30T09:02:57;8.30;;;2.77;;
64894;SDS011;51588;53.702;10.208;2022-09-30T09:05:32;4.73;;;2.63;;
64894;SDS011;51588;53.702;10.208;2022-09-30T09:08:06;9.57;;;3.17;;
64894;SDS011;51588;53.702;10.208;2022-09-30T09:10:42;4.27;;;2.90;;
64894;SDS011;51588;53.702;10.208;2022-09-30T09:13:18;17.53;;;3.10;;
64894;SDS011;51588;53.702;10.208;2022-09-30T09:16:02;4.53;;;3.00;;
64894;SDS011;51588;53.702;10.208;2022-09-30T09:18:41;4.20;;;2.50;;
64894;SDS011;51588;53.702;10.208;2022-09-30T09:21:16;5.37;;;2.93;;
64894;SDS011;51588;53.702;10.208;2022-09-30T09:23:47;7.33;;;3.10;;
64894;SDS011;51588;53.702;10.208;2022-09-30T09:26:15;7.00;;;2.90;;
64894;SDS011;51588;53.702;10.208;2022-09-30T09:28:46;7.60;;;3.23;;
64894;SDS011;51588;53.702;10.208;2022-09-30T09:31:23;8.00;;;3.00;;
64894;SDS011;51588;53.702;10.208;2022-09-30T09:33:51;7.93;;;2.60;;
64894;SDS011;51588;53.702;10.208;2022-09-30T09:36:23;5.73;;;2.60;;
64894;SDS011;51588;53.702;10.208;2022-09-30T09:39:11;5.53;;;2.60;;
64894;SDS011;51588;53.702;10.208;2022-09-30T09:41:48;9.63;;;2.87;;
64894;SDS011;51588;53.702;10.208;2022-09-30T09:44:24;7.30;;;2.50;;
64894;SDS011;51588;53.702;10.208;2022-09-30T09:46:58;7.20;;;2.77;;
64894;SDS011;51588;53.702;10.208;2022-09-30T09:49:33;5.00;;;2.20;;
64894;SDS011;51588;53.702;10.208;2022-09-30T09:55:04;3.50;;;2.20;;
64894;SDS011;51588;53.702;10.208;2022-09-30T09:57:33;4.50;;;2.23;;
64894;SDS011;51588;53.702;10.208;2022-09-30T10:00:03;3.93;;;2.30;;
64894;SDS011;51588;53.702;10.208;2022-09-30T10:02:44;5.67;;;2.43;;
64894;SDS011;51588;53.702;10.208;2022-09-30T10:05:24;4.13;;;2.40;;
64894;SDS011;51588;53.702;10.208;2022-09-30T10:07:51;3.20;;;2.10;;
64894;SDS011;51588;53.702;10.208;2022-09-30T10:10:39;5.83;;;2.17;;
64894;SDS011;51588;53.702;10.208;2022-09-30T10:13:17;5.33;;;2.37;;
64894;SDS011;51588;53.702;10.208;2022-09-30T10:15:47;7.83;;;2.60;;
64894;SDS011;51588;53.702;10.208;2022-09-30T10:18:17;9.57;;;3.67;;
64894;SDS011;51588;53.702;10.208;2022-09-30T10:20:50;10.50;;;6.40;;
64894;SDS011;51588;53.702;10.208;2022-09-30T10:23:19;22.90;;;12.50;;
64894;SDS011;51588;53.702;10.208;2022-09-30T10:28:43;46.67;;;25.87;;
64894;SDS011;51588;53.702;10.208;2022-09-30T10:31:13;53.73;;;26.07;;
64894;SDS011;51588;53.702;10.208;2022-09-30T10:33:49;68.67;;;29.63;;
64894;SDS011;51588;53.702;10.208;2022-09-30T10:36:22;59.77;;;29.90;;
64894;SDS011;51588;53.702;10.208;2022-09-30T10:38:58;63.73;;;30.50;;
64894;SDS011;51588;53.702;10.208;2022-09-30T10:41:27;57.93;;;28.50;;
64894;SDS011;51588;53.702;10.208;2022-09-30T10:43:55;52.70;;;28.20;;
64894;SDS011;51588;53.702;10.208;2022-09-30T10:46:26;54.80;;;25.87;;
64894;SDS011;51588;53.702;10.208;2022-09-30T10:48:55;54.23;;;25.57;;
64894;SDS011;51588;53.702;10.208;2022-09-30T10:51:28;44.03;;;23.97;;
64894;SDS011;51588;53.702;10.208;2022-09-30T10:53:58;43.40;;;21.97;;
64894;SDS011;51588;53.702;10.208;2022-09-30T10:56:38;42.97;;;21.93;;
64894;SDS011;51588;53.702;10.208;2022-09-30T10:59:15;37.27;;;19.60;;
64894;SDS011;51588;53.702;10.208;2022-09-30T11:01:51;42.87;;;19.83;;
64894;SDS011;51588;53.702;10.208;2022-09-30T11:04:23;40.17;;;18.20;;
64894;SDS011;51588;53.702;10.208;2022-09-30T11:06:56;39.10;;;18.67;;
64894;SDS011;51588;53.702;10.208;2022-09-30T11:09:30;31.70;;;16.47;;
64894;SDS011;51588;53.702;10.208;2022-09-30T11:12:01;32.30;;;14.57;;
64894;SDS011;51588;53.702;10.208;2022-09-30T11:14:37;26.90;;;12.47;;
64894;SDS011;51588;53.702;10.208;2022-09-30T11:17:14;20.63;;;11.03;;
64894;SDS011;51588;53.702;10.208;2022-09-30T11:19:52;18.87;;;9.77;;
64894;SDS011;51588;53.702;10.208;2022-09-30T11:22:28;17.37;;;8.57;;
64894;SDS011;51588;53.702;10.208;2022-09-30T11:25:02;15.20;;;7.20;;
64894;SDS011;51588;53.702;10.208;2022-09-30T11:27:37;14.13;;;7.00;;
64894;SDS011;51588;53.702;10.208;2022-09-30T11:30:15;10.70;;;5.63;;
64894;SDS011;51588;53.702;10.208;2022-09-30T11:32:51;9.40;;;4.90;;
64894;SDS011;51588;53.702;10.208;2022-09-30T11:35:40;9.33;;;4.70;;
64894;SDS011;51588;53.702;10.208;2022-09-30T11:38:19;8.63;;;4.10;;
64894;SDS011;51588;53.702;10.208;2022-09-30T11:40:58;6.13;;;3.80;;
64894;SDS011;51588;53.702;10.208;2022-09-30T11:43:34;6.43;;;3.57;;
64894;SDS011;51588;53.702;10.208;2022-09-30T11:46:16;5.80;;;3.43;;
64894;SDS011;51588;53.702;10.208;2022-09-30T11:49:15;5.17;;;2.87;;
64894;SDS011;51588;53.702;10.208;2022-09-30T11:51:55;30.43;;;4.03;;
64894;SDS011;51588;53.702;10.208;2022-09-30T11:54:34;10.47;;;3.43;;
64894;SDS011;51588;53.702;10.208;2022-09-30T11:57:11;8.70;;;3.07;;
64894;SDS011;51588;53.702;10.208;2022-09-30T11:59:45;7.83;;;3.23;;
64894;SDS011;51588;53.702;10.208;2022-09-30T12:02:19;6.80;;;3.13;;
64894;SDS011;51588;53.702;10.208;2022-09-30T12:04:58;6.10;;;2.90;;
64894;SDS011;51588;53.702;10.208;2022-09-30T12:07:32;7.10;;;2.47;;
64894;SDS011;51588;53.702;10.208;2022-09-30T12:10:04;9.27;;;2.60;;
64894;SDS011;51588;53.702;10.208;2022-09-30T12:12:41;5.03;;;2.97;;
64894;SDS011;51588;53.702;10.208;2022-09-30T12:15:12;11.67;;;2.80;;
64894;SDS011;51588;53.702;10.208;2022-09-30T12:17:42;10.40;;;3.23;;
64894;SDS011;51588;53.702;10.208;2022-09-30T12:20:14;4.83;;;2.30;;
64894;SDS011;51588;53.702;10.208;2022-09-30T12:22:44;6.83;;;2.53;;
64894;SDS011;51588;53.702;10.208;2022-09-30T12:25:13;12.63;;;2.70;;
64894;SDS011;51588;53.702;10.208;2022-09-30T12:27:45;4.00;;;2.30;;
64894;SDS011;51588;53.702;10.208;2022-09-30T12:30:20;5.60;;;2.37;;
64894;SDS011;51588;53.702;10.208;2022-09-30T12:33:00;4.90;;;2.40;;
64894;SDS011;51588;53.702;10.208;2022-09-30T12:38:52;5.13;;;2.60;;
64894;SDS011;51588;53.702;10.208;2022-09-30T12:41:48;5.93;;;2.50;;
64894;SDS011;51588;53.702;10.208;2022-09-30T12:44:47;6.97;;;2.10;;
64894;SDS011;51588;53.702;10.208;2022-09-30T12:47:35;17.10;;;2.90;;
64894;SDS011;51588;53.702;10.208;2022-09-30T12:50:11;5.30;;;2.60;;
64894;SDS011;51588;53.702;10.208;2022-09-30T12:52:42;6.93;;;2.77;;
64894;SDS011;51588;53.702;10.208;2022-09-30T12:55:14;5.03;;;2.30;;
64894;SDS011;51588;53.702;10.208;2022-09-30T12:57:47;5.50;;;2.17;;
64894;SDS011;51588;53.702;10.208;2022-09-30T13:00:16;3.90;;;2.37;;
64894;SDS011;51588;53.702;10.208;2022-09-30T13:02:45;12.47;;;2.40;;
64894;SDS011;51588;53.702;10.208;2022-09-30T13:05:37;5.17;;;2.33;;
64894;SDS011;51588;53.702;10.208;2022-09-30T13:11:37;8.70;;;2.20;;
64894;SDS011;51588;53.702;10.208;2022-09-30T13:14:21;5.00;;;2.30;;
64894;SDS011;51588;53.702;10.208;2022-09-30T13:19:51;6.00;;;2.13;;
64894;SDS011;51588;53.702;10.208;2022-09-30T13:25:25;5.93;;;2.20;;
64894;SDS011;51588;53.702;10.208;2022-09-30T13:27:52;3.93;;;2.00;;
64894;SDS011;51588;53.702;10.208;2022-09-30T13:30:40;9.23;;;2.37;;
64894;SDS011;51588;53.702;10.208;2022-09-30T13:33:29;4.73;;;2.30;;
64894;SDS011;51588;53.702;10.208;2022-09-30T13:36:13;3.33;;;2.30;;
64894;SDS011;51588;53.702;10.208;2022-09-30T13:38:43;6.77;;;2.37;;
64894;SDS011;51588;53.702;10.208;2022-09-30T13:41:13;10.97;;;2.43;;
64894;SDS011;51588;53.702;10.208;2022-09-30T13:43:55;4.80;;;2.53;;
64894;SDS011;51588;53.702;10.208;2022-09-30T13:46:29;4.77;;;1.87;;
64894;SDS011;51588;53.702;10.208;2022-09-30T13:49:02;3.00;;;2.03;;
64894;SDS011;51588;53.702;10.208;2022-09-30T13:51:37;3.80;;;1.90;;
64894;SDS011;51588;53.702;10.208;2022-09-30T13:54:06;2.50;;;2.10;;
64894;SDS011;51588;53.702;10.208;2022-09-30T13:56:38;8.43;;;2.40;;
64894;SDS011;51588;53.702;10.208;2022-09-30T13:59:17;10.63;;;2.70;;
64894;SDS011;51588;53.702;10.208;2022-09-30T14:02:00;10.10;;;2.50;;
64894;SDS011;51588;53.702;10.208;2022-09-30T14:04:42;4.13;;;2.00;;
64894;SDS011;51588;53.702;10.208;2022-09-30T14:07:17;8.70;;;2.33;;
64894;SDS011;51588;53.702;10.208;2022-09-30T14:10:09;5.10;;;2.20;;
64894;SDS011;51588;53.702;10.208;2022-09-30T14:12:53;6.50;;;2.23;;
64894;SDS011;51588;53.702;10.208;2022-09-30T14:15:43;12.67;;;2.40;;
64894;SDS011;51588;53.702;10.208;2022-09-30T14:18:39;2.20;;;2.00;;
64894;SDS011;51588;53.702;10.208;2022-09-30T14:21:29;3.63;;;1.93;;
64894;SDS011;51588;53.702;10.208;2022-09-30T14:24:02;4.13;;;2.10;;
64894;SDS011;51588;53.702;10.208;2022-09-30T14:26:39;3.00;;;2.10;;
64894;SDS011;51588;53.702;10.208;2022-09-30T14:29:33;4.57;;;1.83;;
64894;SDS011;51588;53.702;10.208;2022-09-30T14:32:09;2.33;;;1.80;;
64894;SDS011;51588;53.702;10.208;2022-09-30T14:34:39;3.90;;;1.80;;
64894;SDS011;51588;53.702;10.208;2022-09-30T14:37:09;4.10;;;2.07;;
64894;SDS011;51588;53.702;10.208;2022-09-30T14:39:42;4.03;;;1.83;;
64894;SDS011;51588;53.702;10.208;2022-09-30T14:42:12;3.87;;;2.07;;
64894;SDS011;51588;53.702;10.208;2022-09-30T14:44:48;6.20;;;2.47;;
64894;SDS011;51588;53.702;10.208;2022-09-30T14:47:16;2.63;;;2.00;;
64894;SDS011;51588;53.702;10.208;2022-09-30T14:49:44;2.37;;;2.10;;
64894;SDS011;51588;53.702;10.208;2022-09-30T14:55:00;8.20;;;2.27;;
64894;SDS011;51588;53.702;10.208;2022-09-30T14:57:28;8.27;;;2.47;;
64894;SDS011;51588;53.702;10.208;2022-09-30T15:02:53;4.70;;;2.10;;
64894;SDS011;51588;53.702;10.208;2022-09-30T15:05:21;4.90;;;1.93;;
64894;SDS011;51588;53.702;10.208;2022-09-30T15:07:48;3.00;;;2.10;;
64894;SDS011;51588;53.702;10.208;2022-09-30T15:10:16;3.13;;;1.70;;
64894;SDS011;51588;53.702;10.208;2022-09-30T15:12:46;3.80;;;2.00;;
64894;SDS011;51588;53.702;10.208;2022-09-30T15:15:32;2.40;;;1.90;;
64894;SDS011;51588;53.702;10.208;2022-09-30T15:20:53;2.60;;;2.00;;
64894;SDS011;51588;53.702;10.208;2022-09-30T15:23:23;3.53;;;1.90;;
64894;SDS011;51588;53.702;10.208;2022-09-30T15:25:52;3.60;;;2.03;;
64894;SDS011;51588;53.702;10.208;2022-09-30T15:28:21;5.30;;;2.23;;
64894;SDS011;51588;53.702;10.208;2022-09-30T15:30:48;4.30;;;2.30;;
64894;SDS011;51588;53.702;10.208;2022-09-30T15:33:19;2.63;;;2.27;;